createdAt,value
2019-02-17T00:04:51.809Z,40.79
2019-02-17T00:09:58.406Z,40.83
2019-02-17T00:15:06.022Z,41.08
2019-02-17T00:20:12.546Z,41.22
2019-02-17T00:25:20.421Z,41.45
2019-02-17T00:30:26.770Z,41.59
2019-02-17T00:35:32.866Z,42.04
2019-02-17T00:40:38.799Z,42.41
2019-02-17T00:45:45.244Z,42.57
2019-02-17T00:50:50.824Z,42.52
2019-02-17T00:55:56.841Z,43.40
2019-02-17T01:01:03.157Z,43.49
2019-02-17T01:06:09.254Z,43.63
2019-02-17T01:11:15.417Z,43.56
2019-02-17T01:16:21.213Z,44.83
2019-02-17T01:21:26.871Z,44.81
2019-02-17T01:26:33.998Z,44.92
2019-02-17T01:31:39.713Z,44.87
2019-02-17T01:36:46.714Z,45.77
2019-02-17T01:41:52.994Z,46.01
2019-02-17T01:46:59.464Z,45.89
2019-02-17T01:52:05.519Z,46.54
2019-02-17T01:57:11.165Z,47.12
2019-02-17T02:02:17.709Z,47.67
2019-02-17T02:07:23.805Z,47.72
2019-02-17T02:12:29.685Z,47.30
2019-02-17T02:17:37.756Z,48.53
2019-02-17T02:22:46.019Z,47.67
2019-02-17T02:27:51.802Z,47.46
2019-02-17T02:32:59.819Z,47.74
2019-02-17T02:38:06.106Z,47.65
2019-02-17T02:43:11.647Z,47.38
2019-02-17T02:48:17.696Z,47.57
2019-02-17T02:53:23.751Z,47.77
2019-02-17T02:58:29.704Z,47.81
2019-02-17T03:03:35.497Z,47.58
2019-02-17T03:08:41.487Z,47.54
2019-02-17T03:13:47.295Z,47.79
2019-02-17T03:18:53.235Z,47.60
2019-02-17T03:23:58.916Z,47.81
2019-02-17T03:29:04.711Z,47.52
2019-02-17T03:34:10.655Z,47.59
2019-02-17T03:39:16.317Z,47.49
2019-02-17T03:44:23.049Z,47.47
2019-02-17T03:49:28.629Z,47.72
2019-02-17T03:54:34.309Z,47.83
2019-02-17T03:59:40.413Z,47.66
2019-02-17T04:04:46.010Z,47.38
2019-02-17T04:09:52.070Z,46.86
2019-02-17T04:14:57.989Z,46.92
2019-02-17T04:20:03.681Z,46.77
2019-02-17T04:25:09.363Z,46.92
2019-02-17T04:30:28.164Z,47.13
2019-02-17T04:35:24.193Z,47.41
2019-02-17T04:40:29.830Z,47.08
2019-02-17T04:45:35.771Z,47.10
2019-02-17T04:50:42.169Z,47.38
2019-02-17T04:55:47.816Z,47.35
2019-02-17T05:00:55.124Z,47.43
2019-02-17T05:06:02.319Z,47.77
2019-02-17T05:11:08.315Z,47.53
2019-02-17T05:16:14.386Z,47.99
2019-02-17T05:21:20.709Z,48.09
2019-02-17T05:26:26.698Z,47.83
2019-02-17T05:31:34.007Z,47.53
2019-02-17T05:36:39.740Z,48.02
2019-02-17T05:41:45.538Z,47.96
2019-02-17T05:46:51.433Z,48.21
2019-02-17T05:51:56.987Z,48.13
2019-02-17T05:57:04.620Z,48.48
2019-02-17T06:02:12.856Z,48.10
2019-02-17T06:07:21.072Z,47.90
2019-02-17T06:12:27.200Z,47.93
2019-02-17T06:17:33.144Z,47.94
2019-02-17T06:22:39.184Z,48.50
2019-02-17T06:27:45.914Z,48.36
2019-02-17T06:32:52.382Z,48.35
2019-02-17T06:37:58.457Z,48.07
2019-02-17T06:43:04.255Z,47.83
2019-02-17T06:48:10.043Z,47.62
2019-02-17T06:53:17.799Z,47.50
2019-02-17T06:58:23.470Z,47.71
2019-02-17T07:03:30.774Z,47.87
2019-02-17T07:08:36.416Z,47.76
2019-02-17T07:13:42.943Z,47.79
2019-02-17T07:18:48.670Z,47.34
2019-02-17T07:23:55.245Z,47.27
2019-02-17T07:29:01.452Z,47.67
2019-02-17T07:34:07.535Z,47.35
2019-02-17T07:39:14.065Z,47.71
2019-02-17T07:44:19.811Z,47.71
2019-02-17T07:49:26.194Z,47.08
2019-02-17T07:54:33.287Z,46.96
2019-02-17T07:59:40.496Z,46.50
2019-02-17T08:04:47.836Z,46.30
2019-02-17T08:09:55.545Z,45.89
2019-02-17T08:15:01.291Z,45.60
2019-02-17T08:20:10.475Z,45.26
2019-02-17T08:25:21.822Z,44.96
2019-02-17T08:30:25.738Z,45.08
2019-02-17T08:35:32.964Z,44.72
2019-02-17T08:40:41.466Z,44.68
2019-02-17T08:45:47.264Z,44.60
2019-02-17T08:50:54.692Z,44.16
2019-02-17T08:56:00.631Z,43.25
2019-02-17T09:01:07.738Z,42.97
2019-02-17T09:06:15.535Z,42.20
2019-02-17T09:11:21.135Z,41.55
2019-02-17T09:16:28.130Z,41.13
2019-02-17T09:21:34.154Z,40.56
2019-02-17T09:26:39.735Z,39.84
2019-02-17T09:31:47.019Z,39.44
2019-02-17T09:36:52.620Z,38.92
2019-02-17T09:41:59.300Z,38.80
2019-02-17T09:47:05.081Z,37.94
2019-02-17T09:52:11.583Z,37.69
2019-02-17T09:57:17.555Z,36.74
2019-02-17T10:02:26.818Z,36.37
2019-02-17T10:07:33.436Z,35.56
2019-02-17T10:12:39.857Z,34.96
2019-02-17T10:17:47.041Z,34.85
2019-02-17T10:22:52.994Z,34.42
2019-02-17T10:27:59.880Z,34.09
2019-02-17T10:33:06.252Z,34.01
2019-02-17T10:38:11.823Z,34.18
2019-02-17T10:43:17.630Z,33.52
2019-02-17T10:48:24.090Z,33.58
2019-02-17T10:53:30.310Z,33.29
2019-02-17T10:58:36.013Z,33.43
2019-02-17T11:03:45.536Z,32.53
2019-02-17T11:08:52.727Z,32.08
2019-02-17T11:14:00.388Z,31.79
2019-02-17T11:19:08.709Z,31.98
2019-02-17T11:24:16.155Z,31.42
2019-02-17T11:29:21.985Z,31.08
2019-02-17T11:34:28.217Z,30.11
2019-02-17T11:39:34.623Z,29.80
2019-02-17T11:44:40.672Z,29.88
2019-02-17T11:49:47.236Z,29.65
2019-02-17T11:54:55.989Z,29.75
2019-02-17T12:00:03.677Z,29.10
2019-02-17T12:05:12.293Z,27.75
2019-02-17T12:10:19.414Z,28.54
2019-02-17T12:15:25.053Z,27.49
2019-02-17T12:20:39.458Z,28.19
2019-02-17T12:26:03.569Z,26.60
2019-02-17T12:31:10.897Z,26.39
2019-02-17T12:36:18.447Z,25.50
2019-02-17T12:41:24.489Z,24.69
2019-02-17T12:46:31.170Z,23.88
2019-02-17T12:51:39.066Z,24.00
2019-02-17T12:56:49.051Z,22.53
2019-02-17T13:01:56.953Z,23.41
2019-02-17T13:07:03.138Z,23.16
2019-02-17T13:12:11.136Z,22.67
2019-02-17T13:17:17.345Z,22.95
2019-02-17T13:22:24.780Z,22.43
2019-02-17T13:27:36.707Z,22.65
2019-02-17T13:32:46.693Z,23.22
2019-02-17T13:37:58.553Z,22.67
2019-02-17T13:43:07.553Z,23.41
2019-02-17T13:48:18.797Z,23.30
2019-02-17T13:53:26.859Z,22.51
2019-02-17T13:58:34.949Z,23.24
2019-02-17T14:03:48.831Z,23.38
2019-02-17T14:08:56.807Z,23.50
2019-02-17T14:14:05.945Z,22.62
2019-02-17T14:19:14.635Z,23.67
2019-02-17T14:24:22.682Z,23.43
2019-02-17T14:29:29.792Z,21.55
2019-02-17T14:34:36.636Z,22.21
2019-02-17T14:39:51.710Z,22.15
2019-02-17T14:45:00.714Z,23.23
2019-02-17T14:50:10.930Z,23.10
2019-02-17T14:55:17.841Z,22.58
2019-02-17T15:00:24.993Z,23.07
2019-02-17T15:05:34.953Z,22.14
2019-02-17T15:10:48.213Z,22.23
2019-02-17T15:15:57.633Z,22.57
2019-02-17T15:21:09.261Z,22.83
2019-02-17T15:26:16.711Z,22.64
2019-02-17T15:31:24.870Z,22.58
2019-02-17T15:36:35.239Z,23.14
2019-02-17T15:41:43.968Z,23.98
2019-02-17T15:46:50.880Z,23.35
2019-02-17T15:51:58.000Z,23.75
2019-02-17T15:57:03.918Z,24.74
2019-02-17T16:02:11.517Z,25.52
2019-02-17T16:07:19.034Z,25.70
2019-02-17T16:12:26.180Z,26.31
2019-02-17T16:17:32.204Z,27.10
2019-02-17T16:22:39.968Z,27.71
2019-02-17T16:27:49.102Z,28.49
2019-02-17T16:32:56.206Z,29.03
2019-02-17T16:38:05.228Z,29.48
2019-02-17T16:43:13.445Z,29.97
2019-02-17T16:48:20.775Z,32.23
2019-02-17T16:53:27.431Z,30.42
2019-02-17T16:58:35.316Z,31.20
2019-02-17T17:03:42.475Z,31.32
2019-02-17T17:08:49.044Z,31.73
2019-02-17T17:13:56.170Z,32.06
2019-02-17T17:19:02.208Z,32.37
2019-02-17T17:24:10.191Z,32.70
2019-02-17T17:29:16.206Z,33.23
2019-02-17T17:34:22.994Z,33.68
2019-02-17T17:39:28.670Z,33.88
2019-02-17T17:44:36.011Z,34.54
2019-02-17T17:49:42.367Z,34.72
2019-02-17T17:54:48.702Z,35.03
2019-02-17T17:59:54.659Z,35.03
2019-02-17T18:05:08.812Z,35.43
2019-02-17T18:10:14.976Z,35.81
2019-02-17T18:15:21.637Z,36.01
2019-02-17T18:20:28.087Z,36.35
2019-02-17T18:25:35.701Z,36.39
2019-02-17T18:30:44.215Z,36.56
2019-02-17T18:35:52.362Z,36.69
2019-02-17T18:40:59.219Z,36.91
2019-02-17T18:46:05.622Z,37.25
2019-02-17T18:51:12.447Z,37.45
2019-02-17T18:56:18.025Z,37.53
2019-02-17T19:01:24.531Z,37.87
2019-02-17T19:06:30.108Z,37.88
2019-02-17T19:11:35.773Z,38.13
2019-02-17T19:16:41.861Z,38.28
2019-02-17T19:21:48.246Z,38.43
2019-02-17T19:26:54.425Z,38.68
2019-02-17T19:32:02.303Z,38.75
2019-02-17T19:37:09.169Z,38.74
2019-02-17T19:42:17.496Z,39.04
2019-02-17T19:47:24.427Z,39.18
2019-02-17T19:52:30.538Z,39.09
2019-02-17T19:57:36.826Z,39.26
2019-02-17T20:02:59.439Z,39.34
2019-02-17T20:08:05.774Z,39.70
2019-02-17T20:13:12.430Z,40.13
2019-02-17T20:18:18.883Z,40.25
2019-02-17T20:23:24.664Z,40.16
2019-02-17T20:28:42.497Z,41.17
2019-02-17T20:33:39.938Z,40.62
2019-02-17T20:38:45.980Z,40.58
2019-02-17T20:43:52.473Z,40.75
2019-02-17T20:48:59.351Z,40.84
2019-02-17T20:54:05.469Z,40.94
2019-02-17T20:59:12.588Z,40.96
2019-02-17T21:04:18.624Z,41.26
2019-02-17T21:09:24.759Z,41.28
2019-02-17T21:14:31.002Z,41.33
2019-02-17T21:19:36.911Z,41.15
2019-02-17T21:24:42.756Z,41.14
2019-02-17T21:29:48.686Z,41.51
2019-02-17T21:34:54.342Z,41.50
2019-02-17T21:40:00.508Z,41.59
2019-02-17T21:45:12.125Z,41.52
2019-02-17T21:50:18.097Z,41.71
2019-02-17T21:55:25.908Z,41.82
2019-02-17T22:00:31.687Z,41.75
2019-02-17T22:05:37.678Z,41.98
2019-02-17T22:10:43.253Z,42.12
2019-02-17T22:15:49.151Z,42.33
2019-02-17T22:20:55.100Z,42.09
2019-02-17T22:26:00.960Z,42.31
2019-02-17T22:31:06.557Z,42.38
2019-02-17T22:36:13.201Z,42.21
2019-02-17T22:41:19.377Z,42.64
2019-02-17T22:46:25.115Z,42.72
2019-02-17T22:51:31.404Z,42.86
2019-02-17T22:56:36.992Z,42.87
2019-02-17T23:01:43.314Z,42.77
2019-02-17T23:06:54.173Z,42.77
2019-02-17T23:11:57.303Z,42.83
2019-02-17T23:17:02.914Z,43.05
2019-02-17T23:22:09.198Z,43.15
2019-02-17T23:27:15.595Z,43.42
2019-02-17T23:32:21.247Z,43.49
2019-02-17T23:37:27.376Z,43.57
2019-02-17T23:42:33.565Z,43.96
2019-02-17T23:47:39.492Z,44.03
2019-02-17T23:52:45.540Z,43.87
2019-02-17T23:57:51.632Z,43.71
